Terminal Aerodrome Forecast
Issued by NWS Sioux Falls, SD

Home | Current Version | Previous Version | Text Only | Print | Product List | Glossary Off
Versions: 1 2 3 4 5 6 7 8 9 10 11 12 13

000
FTUS43 KFSD 221921 AAA
TAFSUX
TAF AMD
KSUX 221921Z 2219/2318 14011KT P6SM SCT025 OVC040
     FM230000 15008KT P6SM SCT050 BKN110
     FM230600 14007KT P6SM BKN200
     FM231600 16011KT P6SM SCT110=

USA.gov is the U.S. government's official web portal to all federal, state and local government web resources and services.